Time;durP1;ratioP1;P1;durP2;ratioP2;P2;SDS_P1;SDS_P2;PMS_P1;PMS_P2;Temp;Humidity;BMP_temperature;BMP_pressure;BME280_temperature;BME280_humidity;BME280_pressure;Samples;Min_cycle;Max_cycle;Signal;HPM_P1;HPM_P2
2021/01/13 00:02:19;;;;;;;;;;;1.20;99.90;;;;;;5072984;28;19924;-71
2021/01/13 00:04:45;;;;;;;;;;;1.30;99.90;;;;;;5072799;28;19955;-69
2021/01/13 00:07:12;;;;;;;;;;;1.20;99.90;;;;;;5077092;28;19928;-69
2021/01/13 00:09:39;;;;;;;;;;;1.10;99.90;;;;;;5092698;28;19970;-69
2021/01/13 00:12:05;;;;;;;;;;;1.10;99.90;;;;;;5088791;28;19928;-70
2021/01/13 00:14:31;;;;;;;;;;;1.10;99.90;;;;;;5072373;28;19977;-70
2021/01/13 00:16:57;;;;;;;;;;;1.10;99.90;;;;;;5072543;28;20343;-70
2021/01/13 00:19:24;;;;;;;;;;;1.00;99.90;;;;;;5072330;28;19924;-71
2021/01/13 00:21:50;;;;;;;;;;;1.00;99.90;;;;;;5072316;28;19948;-70
2021/01/13 00:24:17;;;;;;;;;;;1.00;99.90;;;;;;5084973;28;20431;-70
2021/01/13 00:26:43;;;;;;;;;;;0.90;99.90;;;;;;5092574;28;19924;-70
2021/01/13 00:29:09;;;;;;;;;;;0.90;99.90;;;;;;5091748;28;19968;-69
2021/01/13 00:31:35;;;;;;;;;;;0.90;99.90;;;;;;5092385;28;19931;-70
2021/01/13 00:34:01;;;;;;;;;;;0.80;99.90;;;;;;5092389;28;19946;-69
2021/01/13 00:36:28;;;;;;;;;;;0.80;99.90;;;;;;5092496;28;19928;-70
2021/01/13 00:38:54;;;;;;;;;;;0.80;99.90;;;;;;5080177;28;19924;-70
2021/01/13 00:41:21;;;;;;;;;;;0.80;99.90;;;;;;5071798;28;20431;-69
2021/01/13 00:43:49;;;;;;;;;;;0.80;99.90;;;;;;5072027;28;19975;-70
2021/01/13 00:46:15;;;;;;;;;;;0.80;99.90;;;;;;5072262;28;20292;-70
2021/01/13 00:48:41;;;;;;;;;;;0.80;99.90;;;;;;5072148;28;19971;-70
2021/01/13 00:51:07;;;;;;;;;;;0.70;99.90;;;;;;5071811;28;19971;-70
2021/01/13 00:53:34;;;;;;;;;;;0.70;99.90;;;;;;5071851;28;20321;-70
2021/01/13 00:56:01;;;;;;;;;;;0.60;99.90;;;;;;5071821;28;19925;-68
2021/01/13 00:58:27;;;;;;;;;;;0.50;99.90;;;;;;5071866;28;20078;-68
2021/01/13 01:00:53;;;;;;;;;;;0.50;99.90;;;;;;5071842;28;20373;-68
2021/01/13 01:03:19;;;;;;;;;;;0.60;99.90;;;;;;5071699;28;19925;-68
2021/01/13 01:05:46;;;;;;;;;;;0.70;99.90;;;;;;5071910;28;19950;-69
2021/01/13 01:08:12;;;;;;;;;;;0.70;99.90;;;;;;5071903;28;19924;-69
2021/01/13 01:10:39;;;;;;;;;;;0.70;99.90;;;;;;5071539;28;19932;-69
2021/01/13 01:13:06;;;;;;;;;;;0.80;99.90;;;;;;5071927;28;19928;-69
2021/01/13 01:15:32;;;;;;;;;;;0.80;99.90;;;;;;5072083;28;20011;-69
2021/01/13 01:17:58;;;;;;;;;;;0.80;99.90;;;;;;5071693;28;20373;-68
2021/01/13 01:20:24;;;;;;;;;;;0.90;99.90;;;;;;5073791;28;19932;-68
2021/01/13 01:22:51;;;;;;;;;;;0.90;99.90;;;;;;5091899;28;19951;-69
2021/01/13 01:25:18;;;;;;;;;;;0.90;99.90;;;;;;5091710;28;20274;-69
2021/01/13 01:27:47;;;;;;;;;;;0.90;99.90;;;;;;5092096;28;19924;-68
2021/01/13 01:30:13;;;;;;;;;;;1.00;99.90;;;;;;5091717;28;20304;-68
2021/01/13 01:32:39;;;;;;;;;;;1.00;99.90;;;;;;5091774;28;20369;-68
2021/01/13 01:35:05;;;;;;;;;;;1.00;99.90;;;;;;5082804;28;19932;-69
2021/01/13 01:37:33;;;;;;;;;;;1.00;99.90;;;;;;5071592;28;19947;-69
2021/01/13 01:39:59;;;;;;;;;;;1.00;99.90;;;;;;5072655;28;19933;-69
2021/01/13 01:42:25;;;;;;;;;;;1.10;99.90;;;;;;5074991;28;19929;-69
2021/01/13 01:44:54;;;;;;;;;;;1.00;99.90;;;;;;5075248;28;19974;-69
2021/01/13 01:47:26;;;;;;;;;;;1.00;99.90;;;;;;5081739;28;19978;-69
2021/01/13 01:49:52;;;;;;;;;;;1.00;99.90;;;;;;5095007;28;19924;-69
2021/01/13 01:52:18;;;;;;;;;;;1.00;99.90;;;;;;5094798;28;19954;-69
2021/01/13 01:54:46;;;;;;;;;;;1.10;99.90;;;;;;5095104;28;20430;-69
2021/01/13 01:57:15;;;;;;;;;;;1.10;99.90;;;;;;5095276;28;19932;-69
2021/01/13 01:59:43;;;;;;;;;;;1.10;99.90;;;;;;5095143;28;19932;-69
2021/01/13 02:02:10;;;;;;;;;;;1.10;99.90;;;;;;5094679;28;19924;-69
2021/01/13 02:04:37;;;;;;;;;;;1.10;99.90;;;;;;5075855;28;20297;-69
2021/01/13 02:07:25;;;;;;;;;;;1.20;99.90;;;;;;5074678;28;19963;-69
2021/01/13 02:09:51;;;;;;;;;;;1.20;99.90;;;;;;5074561;28;20140;-69
2021/01/13 02:12:20;;;;;;;;;;;1.20;99.90;;;;;;5074615;28;19924;-69
2021/01/13 02:14:46;;;;;;;;;;;1.10;99.90;;;;;;5074761;28;19932;-69
2021/01/13 02:17:14;;;;;;;;;;;1.20;99.90;;;;;;5074371;28;19924;-69
2021/01/13 02:19:58;;;;;;;;;;;1.20;99.90;;;;;;5074400;28;19947;-69
2021/01/13 02:22:25;;;;;;;;;;;1.20;99.90;;;;;;5073818;28;19978;-69
2021/01/13 02:25:05;;;;;;;;;;;1.30;99.90;;;;;;5075340;28;20007;-69
2021/01/13 02:27:51;;;;;;;;;;;1.20;99.90;;;;;;5074307;28;19928;-69
2021/01/13 02:30:18;;;;;;;;;;;1.20;99.90;;;;;;5074104;28;19928;-69
2021/01/13 02:32:47;;;;;;;;;;;1.20;99.90;;;;;;5090051;28;19931;-69
2021/01/13 02:35:16;;;;;;;;;;;1.20;99.90;;;;;;5094617;28;19924;-69
2021/01/13 02:37:44;;;;;;;;;;;1.10;99.90;;;;;;5083694;28;19978;-69
2021/01/13 02:40:17;;;;;;;;;;;1.10;99.90;;;;;;5073136;28;20373;-69
2021/01/13 02:42:57;;;;;;;;;;;1.10;99.90;;;;;;5074072;28;19986;-69
2021/01/13 02:45:24;;;;;;;;;;;1.10;99.90;;;;;;5074096;28;19925;-69
2021/01/13 02:48:11;;;;;;;;;;;1.20;99.90;;;;;;5074063;28;19928;-69
2021/01/13 02:50:42;;;;;;;;;;;1.20;99.90;;;;;;5073774;28;19924;-69
2021/01/13 02:53:25;;;;;;;;;;;1.20;99.90;;;;;;5073302;28;20430;-69
2021/01/13 02:56:04;;;;;;;;;;;1.30;99.90;;;;;;5073656;28;19925;-69
2021/01/13 02:58:34;;;;;;;;;;;1.30;99.90;;;;;;5073638;28;19928;-69
2021/01/13 03:01:00;;;;;;;;;;;1.40;99.90;;;;;;5090670;28;19924;-69
2021/01/13 03:03:30;;;;;;;;;;;1.40;99.90;;;;;;5093874;28;19925;-69
2021/01/13 03:05:57;;;;;;;;;;;1.40;99.90;;;;;;5093847;28;19947;-70
2021/01/13 03:08:33;;;;;;;;;;;1.50;99.90;;;;;;5093733;28;19924;-69
2021/01/13 03:11:01;;;;;;;;;;;1.50;99.90;;;;;;5093123;28;19924;-68
2021/01/13 03:13:33;;;;;;;;;;;1.50;99.90;;;;;;5092920;28;22388;-69
2021/01/13 03:16:00;;;;;;;;;;;1.50;99.90;;;;;;5093643;28;20346;-70
2021/01/13 03:18:31;;;;;;;;;;;1.50;99.90;;;;;;5093545;28;19934;-70
2021/01/13 03:21:02;;;;;;;;;;;1.50;99.90;;;;;;5093165;28;19950;-70
2021/01/13 03:23:30;;;;;;;;;;;1.60;99.90;;;;;;5089928;28;19966;-70
2021/01/13 03:25:58;;;;;;;;;;;1.60;99.90;;;;;;5080405;28;20376;-70
2021/01/13 03:28:24;;;;;;;;;;;1.70;99.90;;;;;;5093344;28;19932;-68
2021/01/13 03:30:51;;;;;;;;;;;1.60;99.90;;;;;;5092498;28;19977;-68
2021/01/13 03:33:29;;;;;;;;;;;1.60;99.90;;;;;;5093120;28;19969;-69
2021/01/13 03:35:57;;;;;;;;;;;1.60;99.90;;;;;;5093327;28;19924;-68
2021/01/13 03:38:24;;;;;;;;;;;1.60;99.90;;;;;;5093393;28;19978;-69
2021/01/13 03:40:50;;;;;;;;;;;1.60;99.90;;;;;;5093566;28;19924;-68
2021/01/13 03:43:17;;;;;;;;;;;1.60;99.90;;;;;;5093048;28;19924;-68
2021/01/13 03:45:46;;;;;;;;;;;1.70;99.90;;;;;;5078081;28;20019;-68
2021/01/13 03:48:18;;;;;;;;;;;1.70;99.90;;;;;;5072744;28;19925;-67
2021/01/13 03:50:46;;;;;;;;;;;1.70;99.90;;;;;;5072489;28;20312;-67
2021/01/13 03:53:12;;;;;;;;;;;1.70;99.90;;;;;;5072890;28;19925;-67
2021/01/13 03:55:39;;;;;;;;;;;1.70;99.90;;;;;;5072682;28;19970;-68
2021/01/13 03:58:17;;;;;;;;;;;1.70;99.90;;;;;;5072539;28;20450;-67
2021/01/13 04:00:52;;;;;;;;;;;1.70;99.90;;;;;;5072378;28;19925;-67
2021/01/13 04:03:25;;;;;;;;;;;1.70;99.90;;;;;;5071544;28;19924;-67
2021/01/13 04:06:03;;;;;;;;;;;1.70;99.90;;;;;;5072815;28;19928;-68
2021/01/13 04:08:33;;;;;;;;;;;1.70;99.90;;;;;;5072635;28;19925;-68
2021/01/13 04:10:59;;;;;;;;;;;1.80;99.90;;;;;;5072263;28;20302;-68
2021/01/13 04:13:33;;;;;;;;;;;1.80;99.90;;;;;;5072354;28;19928;-68
2021/01/13 04:16:00;;;;;;;;;;;1.80;99.90;;;;;;5072545;28;20286;-68
2021/01/13 04:18:26;;;;;;;;;;;1.70;99.90;;;;;;5072686;28;20296;-69
2021/01/13 04:20:53;;;;;;;;;;;1.70;99.90;;;;;;5072103;28;19925;-68
2021/01/13 04:23:20;;;;;;;;;;;1.70;99.90;;;;;;5072267;28;19932;-68
2021/01/13 04:25:46;;;;;;;;;;;1.60;99.90;;;;;;5072416;28;19924;-67
2021/01/13 04:28:12;;;;;;;;;;;1.50;99.90;;;;;;5072193;28;19928;-67
2021/01/13 04:30:39;;;;;;;;;;;1.50;99.90;;;;;;5072011;28;19924;-67
2021/01/13 04:33:05;;;;;;;;;;;1.50;99.90;;;;;;5072254;28;20297;-68
2021/01/13 04:35:31;;;;;;;;;;;1.50;99.90;;;;;;5072153;28;20289;-67
2021/01/13 04:37:59;;;;;;;;;;;1.50;99.90;;;;;;5072099;28;19924;-68
2021/01/13 04:40:30;;;;;;;;;;;1.50;99.90;;;;;;5071875;28;19931;-67
2021/01/13 04:42:59;;;;;;;;;;;1.50;99.90;;;;;;5072344;28;19960;-67
2021/01/13 04:45:34;;;;;;;;;;;1.50;99.90;;;;;;5072227;28;19928;-67
2021/01/13 04:48:03;;;;;;;;;;;1.60;99.90;;;;;;5072180;28;19924;-67
2021/01/13 04:50:33;;;;;;;;;;;1.60;99.90;;;;;;5071875;28;19932;-67
2021/01/13 04:53:00;;;;;;;;;;;1.60;99.90;;;;;;5072211;28;19947;-67
2021/01/13 04:55:27;;;;;;;;;;;1.60;99.90;;;;;;5072169;28;19959;-67
2021/01/13 04:58:11;;;;;;;;;;;1.70;99.90;;;;;;5071860;28;20161;-68
2021/01/13 05:00:55;;;;;;;;;;;1.60;99.90;;;;;;5070766;28;19925;-69
2021/01/13 05:03:37;;;;;;;;;;;1.60;99.90;;;;;;5071310;28;19935;-68
2021/01/13 05:06:15;;;;;;;;;;;1.70;99.90;;;;;;5071997;28;19928;-67
2021/01/13 05:08:50;;;;;;;;;;;1.70;99.90;;;;;;5071997;28;19928;-68
2021/01/13 05:11:18;;;;;;;;;;;1.70;99.90;;;;;;5071549;28;20393;-67
2021/01/13 05:13:46;;;;;;;;;;;1.70;99.90;;;;;;5071696;28;19932;-68
2021/01/13 05:16:13;;;;;;;;;;;1.70;99.90;;;;;;5075016;28;20019;-68
2021/01/13 05:18:52;;;;;;;;;;;1.70;99.90;;;;;;5075752;28;19997;-67
2021/01/13 05:21:18;;;;;;;;;;;1.70;99.90;;;;;;5075330;28;19940;-68
2021/01/13 05:23:48;;;;;;;;;;;1.70;99.90;;;;;;5075442;28;19932;-68
2021/01/13 05:26:16;;;;;;;;;;;1.70;99.90;;;;;;5075385;28;19978;-67
2021/01/13 05:28:50;;;;;;;;;;;1.70;99.90;;;;;;5075340;28;19924;-68
2021/01/13 05:31:18;;;;;;;;;;;1.70;99.90;;;;;;5075170;28;19931;-68
2021/01/13 05:33:44;;;;;;;;;;;1.70;99.90;;;;;;5075255;28;19970;-68
2021/01/13 05:36:13;;;;;;;;;;;1.70;99.90;;;;;;5075163;28;19943;-68
2021/01/13 05:39:03;;;;;;;;;;;1.60;99.90;;;;;;5075199;28;19928;-67
2021/01/13 05:41:29;;;;;;;;;;;1.60;99.90;;;;;;5075135;28;19924;-67
2021/01/13 05:43:56;;;;;;;;;;;1.60;99.90;;;;;;5075172;28;19968;-67
2021/01/13 05:46:22;;;;;;;;;;;1.60;99.90;;;;;;5075121;28;20385;-67
2021/01/13 05:48:49;;;;;;;;;;;1.60;99.90;;;;;;5074889;28;20450;-67
2021/01/13 05:51:16;;;;;;;;;;;1.60;99.90;;;;;;5074682;28;19966;-67
2021/01/13 05:53:50;;;;;;;;;;;1.50;99.90;;;;;;5075032;28;20266;-68
2021/01/13 05:56:17;;;;;;;;;;;1.40;99.90;;;;;;5074753;28;19931;-67
2021/01/13 05:58:44;;;;;;;;;;;1.30;99.90;;;;;;5074867;28;19924;-68
2021/01/13 06:01:20;;;;;;;;;;;1.30;99.90;;;;;;5074606;28;19924;-69
2021/01/13 06:03:47;;;;;;;;;;;1.30;99.90;;;;;;5074703;28;19925;-69
2021/01/13 06:06:17;;;;;;;;;;;1.40;99.90;;;;;;5074910;28;19936;-69
2021/01/13 06:08:44;;;;;;;;;;;1.30;99.90;;;;;;5074809;28;19924;-68
2021/01/13 06:11:12;;;;;;;;;;;1.40;99.90;;;;;;5074298;28;20378;-68
2021/01/13 06:13:41;;;;;;;;;;;1.50;99.90;;;;;;5074547;28;19936;-68
2021/01/13 06:16:07;;;;;;;;;;;1.50;99.90;;;;;;5074649;28;20386;-69
2021/01/13 06:18:35;;;;;;;;;;;1.50;99.90;;;;;;5074376;28;19928;-68
2021/01/13 06:21:08;;;;;;;;;;;1.60;99.90;;;;;;5074434;28;19928;-68
2021/01/13 06:23:41;;;;;;;;;;;1.60;99.90;;;;;;5074498;28;19970;-69
2021/01/13 06:26:07;;;;;;;;;;;1.60;99.90;;;;;;5073417;28;19924;-68
2021/01/13 06:29:04;;;;;;;;;;;1.60;99.90;;;;;;5074360;28;19994;-68
2021/01/13 06:31:41;;;;;;;;;;;1.60;99.90;;;;;;5073987;28;20416;-68
2021/01/13 06:34:16;;;;;;;;;;;1.60;99.90;;;;;;5074255;28;19955;-68
2021/01/13 06:36:54;;;;;;;;;;;1.50;99.90;;;;;;5074129;28;19997;-68
2021/01/13 06:39:21;;;;;;;;;;;1.50;99.90;;;;;;5074059;28;19925;-68
2021/01/13 06:41:48;;;;;;;;;;;1.50;99.90;;;;;;5073885;28;19932;-68
2021/01/13 06:44:16;;;;;;;;;;;1.50;99.90;;;;;;5074179;28;19925;-68
2021/01/13 06:46:42;;;;;;;;;;;1.50;99.90;;;;;;5073846;28;19924;-69
2021/01/13 06:49:13;;;;;;;;;;;1.50;99.90;;;;;;5073905;28;20304;-69
2021/01/13 06:51:42;;;;;;;;;;;1.40;99.90;;;;;;5073466;28;19925;-70
2021/01/13 06:54:10;;;;;;;;;;;1.40;99.90;;;;;;5073819;28;19925;-69
2021/01/13 06:56:37;;;;;;;;;;;1.40;99.90;;;;;;5073552;28;19924;-68
2021/01/13 06:59:03;;;;;;;;;;;1.50;99.90;;;;;;5073886;28;19924;-68
2021/01/13 07:01:30;;;;;;;;;;;1.50;99.90;;;;;;5073559;28;19931;-68
2021/01/13 07:03:57;;;;;;;;;;;1.50;99.90;;;;;;5073638;28;19928;-68
2021/01/13 07:06:23;;;;;;;;;;;1.50;99.90;;;;;;5073497;28;20377;-68
2021/01/13 07:08:50;;;;;;;;;;;1.60;99.90;;;;;;5073733;28;19931;-68
2021/01/13 07:11:16;;;;;;;;;;;1.60;99.90;;;;;;5073284;28;19931;-68
2021/01/13 07:13:48;;;;;;;;;;;1.60;99.90;;;;;;5073314;28;19924;-68
2021/01/13 07:16:14;;;;;;;;;;;1.60;99.90;;;;;;5073304;28;20384;-68
2021/01/13 07:18:41;;;;;;;;;;;1.60;99.90;;;;;;5073321;28;19929;-68
2021/01/13 07:21:08;;;;;;;;;;;1.60;99.90;;;;;;5072887;28;20308;-68
2021/01/13 07:23:34;;;;;;;;;;;1.60;99.90;;;;;;5073321;28;19931;-68
2021/01/13 07:26:00;;;;;;;;;;;1.70;99.90;;;;;;5073336;28;19954;-69
2021/01/13 07:28:26;;;;;;;;;;;1.70;99.90;;;;;;5073276;28;19925;-68
2021/01/13 07:30:53;;;;;;;;;;;2.20;99.90;;;;;;5072556;28;19924;-68
2021/01/13 07:33:20;;;;;;;;;;;1.80;99.90;;;;;;5072875;28;19924;-68
2021/01/13 07:35:48;;;;;;;;;;;1.70;99.90;;;;;;5073120;28;19928;-67
2021/01/13 07:38:15;;;;;;;;;;;1.80;99.90;;;;;;5072840;28;20328;-68
2021/01/13 07:40:58;;;;;;;;;;;1.80;99.90;;;;;;5072565;28;19929;-68
2021/01/13 07:43:43;;;;;;;;;;;1.80;99.90;;;;;;5072855;28;20012;-68
2021/01/13 07:46:17;;;;;;;;;;;1.80;99.90;;;;;;5072876;28;20034;-68
2021/01/13 07:49:13;;;;;;;;;;;1.80;99.90;;;;;;5072996;28;19924;-68
2021/01/13 07:51:46;;;;;;;;;;;1.90;99.90;;;;;;5030160;28;19925;-68
2021/01/13 07:54:18;;;;;;;;;;;1.90;99.90;;;;;;5064525;28;19924;-68
2021/01/13 07:56:47;;;;;;;;;;;1.90;99.90;;;;;;5072601;28;19925;-68
2021/01/13 07:59:34;;;;;;;;;;;1.90;99.90;;;;;;5072682;28;19925;-68
2021/01/13 08:02:18;;;;;;;;;;;1.90;99.90;;;;;;5072296;28;20031;-68
2021/01/13 08:05:07;;;;;;;;;;;1.90;99.90;;;;;;5072658;28;19928;-68
2021/01/13 08:07:37;;;;;;;;;;;1.90;99.90;;;;;;5072392;28;19925;-68
2021/01/13 08:10:04;;;;;;;;;;;2.00;99.90;;;;;;5072188;28;19932;-68
2021/01/13 08:12:57;;;;;;;;;;;2.00;99.90;;;;;;5072522;28;19925;-68
2021/01/13 08:15:47;;;;;;;;;;;2.00;99.90;;;;;;5072776;28;19925;-68
2021/01/13 08:18:24;;;;;;;;;;;2.10;99.90;;;;;;5072579;28;19925;-68
2021/01/13 08:21:09;;;;;;;;;;;2.10;99.90;;;;;;5072087;28;19962;-68
2021/01/13 08:23:40;;;;;;;;;;;2.10;99.90;;;;;;5072219;28;19924;-68
2021/01/13 08:26:06;;;;;;;;;;;2.10;99.90;;;;;;5072199;28;20415;-68
2021/01/13 08:28:36;;;;;;;;;;;2.10;99.90;;;;;;5072368;28;19925;-68
2021/01/13 08:31:03;;;;;;;;;;;2.20;99.90;;;;;;5071863;28;19924;-68
2021/01/13 08:33:32;;;;;;;;;;;2.20;99.90;;;;;;5072094;28;19931;-68
2021/01/13 08:35:59;;;;;;;;;;;2.10;99.90;;;;;;5072067;28;19924;-68
2021/01/13 08:38:25;;;;;;;;;;;2.20;99.90;;;;;;5072317;28;19934;-68
2021/01/13 08:40:53;;;;;;;;;;;2.20;99.90;;;;;;5072047;28;19924;-68
2021/01/13 08:43:19;;;;;;;;;;;2.20;99.90;;;;;;5072273;28;19924;-69
2021/01/13 08:45:46;;;;;;;;;;;2.20;99.90;;;;;;5072192;28;19936;-68
2021/01/13 08:48:13;;;;;;;;;;;2.20;99.90;;;;;;5072075;28;20301;-68
2021/01/13 08:50:40;;;;;;;;;;;2.30;99.90;;;;;;5074393;28;19987;-68
2021/01/13 08:53:06;;;;;;;;;;;2.30;99.90;;;;;;5076207;28;19925;-68
2021/01/13 08:55:33;;;;;;;;;;;2.20;99.90;;;;;;5076213;28;19931;-68
2021/01/13 08:58:07;;;;;;;;;;;2.30;99.90;;;;;;5075934;28;19982;-68
2021/01/13 09:00:34;;;;;;;;;;;2.40;99.90;;;;;;5076007;28;19970;-68
2021/01/13 09:03:01;;;;;;;;;;;2.40;99.90;;;;;;5075520;28;20343;-68
2021/01/13 09:05:28;;;;;;;;;;;2.40;99.90;;;;;;5076266;28;19978;-67
2021/01/13 09:07:55;;;;;;;;;;;2.40;99.90;;;;;;5075800;28;19928;-68
2021/01/13 09:10:21;;;;;;;;;;;2.50;99.90;;;;;;5075594;28;19928;-68
2021/01/13 09:12:47;;;;;;;;;;;2.50;99.90;;;;;;5075576;28;19925;-68
2021/01/13 09:15:19;;;;;;;;;;;2.40;99.90;;;;;;5075739;28;19925;-68
2021/01/13 09:17:52;;;;;;;;;;;2.50;99.90;;;;;;5075405;28;20404;-68
2021/01/13 09:20:22;;;;;;;;;;;2.50;99.90;;;;;;5075475;28;19929;-68
2021/01/13 09:22:50;;;;;;;;;;;2.60;99.90;;;;;;5075416;28;20015;-68
2021/01/13 09:25:17;;;;;;;;;;;2.60;99.90;;;;;;5075574;28;20332;-68
2021/01/13 09:27:44;;;;;;;;;;;2.60;99.90;;;;;;5075511;28;19924;-68
2021/01/13 09:30:25;;;;;;;;;;;2.80;99.90;;;;;;5075089;28;19993;-68
2021/01/13 09:32:53;;;;;;;;;;;2.80;99.90;;;;;;5075331;28;19935;-68
2021/01/13 09:35:23;;;;;;;;;;;2.80;99.90;;;;;;5075551;28;19924;-68
2021/01/13 09:37:51;;;;;;;;;;;2.80;99.90;;;;;;5075159;28;20024;-68
2021/01/13 09:40:19;;;;;;;;;;;2.90;99.90;;;;;;5074840;28;19924;-68
2021/01/13 09:42:46;;;;;;;;;;;2.80;99.90;;;;;;5075002;28;19932;-68
2021/01/13 09:45:12;;;;;;;;;;;2.80;99.90;;;;;;5075167;28;19925;-68
2021/01/13 09:47:38;;;;;;;;;;;2.80;99.90;;;;;;5075173;28;19925;-68
2021/01/13 09:50:06;;;;;;;;;;;2.80;99.90;;;;;;5074805;28;19924;-68
2021/01/13 09:52:39;;;;;;;;;;;2.80;99.90;;;;;;5074796;28;19954;-68
2021/01/13 09:55:08;;;;;;;;;;;2.80;99.90;;;;;;5074587;28;20018;-69
2021/01/13 09:57:34;;;;;;;;;;;2.70;99.90;;;;;;5074870;28;19932;-70
2021/01/13 10:00:01;;;;;;;;;;;2.80;99.90;;;;;;5074841;28;19924;-67
2021/01/13 10:02:28;;;;;;;;;;;2.80;99.90;;;;;;5074838;28;19924;-68
2021/01/13 10:04:54;;;;;;;;;;;2.90;99.90;;;;;;5075031;28;19924;-69
2021/01/13 10:07:22;;;;;;;;;;;2.90;99.90;;;;;;5074815;28;19925;-68
2021/01/13 10:09:49;;;;;;;;;;;2.90;99.90;;;;;;5074227;28;19986;-68
2021/01/13 10:12:16;;;;;;;;;;;3.00;99.90;;;;;;5074754;28;19928;-70
2021/01/13 10:14:44;;;;;;;;;;;3.00;99.90;;;;;;5074344;28;20413;-68
2021/01/13 10:17:10;;;;;;;;;;;3.00;99.90;;;;;;5074722;28;19931;-67
2021/01/13 10:19:36;;;;;;;;;;;3.10;99.90;;;;;;5074329;28;20396;-67
2021/01/13 10:22:02;;;;;;;;;;;3.10;99.90;;;;;;5074186;28;20292;-67
2021/01/13 10:24:30;;;;;;;;;;;3.10;99.90;;;;;;5074262;28;19932;-69
2021/01/13 10:26:59;;;;;;;;;;;3.10;99.90;;;;;;5074397;28;19924;-68
2021/01/13 10:29:25;;;;;;;;;;;3.10;99.90;;;;;;5074329;28;19932;-69
2021/01/13 10:31:52;;;;;;;;;;;3.10;99.90;;;;;;5074013;28;19928;-68
2021/01/13 10:34:18;;;;;;;;;;;3.10;99.90;;;;;;5074389;28;19950;-67
2021/01/13 10:36:45;;;;;;;;;;;3.10;99.90;;;;;;5073938;28;19925;-68
2021/01/13 10:39:12;;;;;;;;;;;3.10;99.90;;;;;;5074123;28;19951;-69
2021/01/13 10:41:40;;;;;;;;;;;3.10;99.90;;;;;;5073980;28;19971;-67
2021/01/13 10:44:07;;;;;;;;;;;3.10;99.90;;;;;;5074011;28;19932;-68
2021/01/13 10:46:53;;;;;;;;;;;3.10;99.90;;;;;;5074156;28;19932;-68
2021/01/13 10:49:20;;;;;;;;;;;3.10;99.90;;;;;;5073889;28;19924;-67
2021/01/13 10:51:47;;;;;;;;;;;3.10;99.90;;;;;;5073501;28;19924;-67
2021/01/13 10:54:16;;;;;;;;;;;3.10;99.90;;;;;;5073838;28;19929;-67
2021/01/13 10:56:43;;;;;;;;;;;3.20;99.90;;;;;;5073552;28;19931;-67
2021/01/13 10:59:14;;;;;;;;;;;3.20;99.90;;;;;;5073621;28;20346;-68
2021/01/13 11:01:40;;;;;;;;;;;3.30;99.90;;;;;;5073201;28;19925;-68
2021/01/13 11:04:19;;;;;;;;;;;3.30;99.90;;;;;;5073592;28;19924;-67
2021/01/13 11:06:47;;;;;;;;;;;3.30;99.90;;;;;;5073302;28;20396;-68
2021/01/13 11:09:14;;;;;;;;;;;3.30;99.90;;;;;;5073454;28;19978;-68
2021/01/13 11:11:42;;;;;;;;;;;3.30;99.90;;;;;;5073008;28;19925;-68
2021/01/13 11:14:09;;;;;;;;;;;3.30;99.90;;;;;;5072774;28;19924;-68
2021/01/13 11:16:36;;;;;;;;;;;3.30;99.90;;;;;;5073106;28;19947;-68
2021/01/13 11:19:02;;;;;;;;;;;3.20;99.90;;;;;;5073208;28;19928;-68
2021/01/13 11:21:28;;;;;;;;;;;3.30;99.90;;;;;;5073051;28;19978;-68
2021/01/13 11:23:55;;;;;;;;;;;3.30;99.90;;;;;;5073135;28;19931;-68
2021/01/13 11:26:21;;;;;;;;;;;3.30;99.90;;;;;;5072996;28;19954;-68
2021/01/13 11:28:48;;;;;;;;;;;3.30;99.90;;;;;;5073032;28;19924;-68
2021/01/13 11:31:18;;;;;;;;;;;3.30;99.90;;;;;;5072596;28;19935;-68
2021/01/13 11:33:45;;;;;;;;;;;3.50;99.90;;;;;;5073082;28;19928;-68
2021/01/13 11:36:12;;;;;;;;;;;3.40;99.90;;;;;;5072999;28;19925;-68
2021/01/13 11:38:42;;;;;;;;;;;3.40;99.90;;;;;;5072841;28;19924;-68
2021/01/13 11:41:39;;;;;;;;;;;3.40;99.90;;;;;;5072593;28;19968;-68
2021/01/13 11:44:19;;;;;;;;;;;3.40;99.90;;;;;;5030789;28;19925;-68
2021/01/13 11:46:50;;;;;;;;;;;3.50;99.90;;;;;;5067157;28;19924;-67
2021/01/13 11:49:20;;;;;;;;;;;3.50;99.90;;;;;;5072658;28;19924;-67
2021/01/13 11:51:47;;;;;;;;;;;3.50;99.90;;;;;;5072253;28;19932;-69
2021/01/13 11:54:22;;;;;;;;;;;3.50;99.90;;;;;;5072826;28;19924;-68
2021/01/13 11:56:48;;;;;;;;;;;3.60;99.90;;;;;;5072575;28;19925;-68
2021/01/13 11:59:23;;;;;;;;;;;3.60;99.90;;;;;;5072576;28;19924;-69
2021/01/13 12:01:50;;;;;;;;;;;3.60;99.90;;;;;;5072192;28;19925;-69
2021/01/13 12:04:16;;;;;;;;;;;3.60;99.90;;;;;;5072339;28;20313;-69
2021/01/13 12:06:53;;;;;;;;;;;3.60;99.90;;;;;;5072739;28;19931;-69
2021/01/13 12:09:20;;;;;;;;;;;3.50;99.90;;;;;;5072642;28;19931;-68
2021/01/13 12:11:46;;;;;;;;;;;3.50;99.90;;;;;;5072291;28;20343;-68
2021/01/13 12:14:12;;;;;;;;;;;3.50;99.90;;;;;;5072258;28;19935;-68
2021/01/13 12:16:38;;;;;;;;;;;3.50;99.90;;;;;;5072480;28;19925;-67
2021/01/13 12:19:05;;;;;;;;;;;3.60;99.90;;;;;;5072170;28;19935;-67
2021/01/13 12:21:31;;;;;;;;;;;3.60;99.90;;;;;;5071671;28;20337;-69
2021/01/13 12:23:58;;;;;;;;;;;3.60;99.90;;;;;;5071262;28;19925;-69
2021/01/13 12:26:28;;;;;;;;;;;3.60;99.90;;;;;;5072623;28;19932;-69
2021/01/13 12:28:55;;;;;;;;;;;3.70;99.90;;;;;;5072253;28;19931;-69
2021/01/13 12:31:22;;;;;;;;;;;3.70;99.90;;;;;;5071529;28;19951;-68
2021/01/13 12:33:49;;;;;;;;;;;3.90;99.90;;;;;;5071951;28;19993;-69
2021/01/13 12:36:20;;;;;;;;;;;4.00;99.90;;;;;;5072057;28;20012;-66
2021/01/13 12:38:46;;;;;;;;;;;3.90;99.90;;;;;;5072015;28;19925;-69
2021/01/13 12:41:19;;;;;;;;;;;4.00;99.90;;;;;;5071433;28;19925;-68
2021/01/13 12:43:45;;;;;;;;;;;3.90;99.90;;;;;;5071938;28;19924;-69
2021/01/13 12:46:11;;;;;;;;;;;3.80;99.90;;;;;;5071884;28;20011;-68
2021/01/13 12:48:37;;;;;;;;;;;3.80;99.90;;;;;;5071904;28;19931;-68
2021/01/13 12:51:03;;;;;;;;;;;3.80;99.90;;;;;;5071801;28;19924;-68
2021/01/13 12:53:30;;;;;;;;;;;3.70;99.90;;;;;;5072109;28;19936;-69
2021/01/13 12:55:56;;;;;;;;;;;3.70;99.90;;;;;;5071868;28;20373;-68
2021/01/13 12:58:22;;;;;;;;;;;3.80;99.90;;;;;;5071778;28;19928;-68
2021/01/13 13:00:48;;;;;;;;;;;3.80;99.90;;;;;;5071881;28;20438;-67
2021/01/13 13:03:14;;;;;;;;;;;3.70;99.90;;;;;;5072007;28;19924;-68
2021/01/13 13:05:40;;;;;;;;;;;3.70;99.90;;;;;;5071863;28;19931;-68
2021/01/13 13:08:06;;;;;;;;;;;3.70;99.90;;;;;;5071565;28;19925;-68
2021/01/13 13:10:33;;;;;;;;;;;3.70;99.90;;;;;;5070974;28;20405;-68
2021/01/13 13:12:59;;;;;;;;;;;3.80;99.90;;;;;;5071429;28;19924;-68
2021/01/13 13:15:25;;;;;;;;;;;3.80;99.90;;;;;;5071845;28;19928;-68
2021/01/13 13:17:51;;;;;;;;;;;3.80;99.90;;;;;;5071884;28;19931;-68
2021/01/13 13:20:17;;;;;;;;;;;3.80;99.90;;;;;;5071509;28;20373;-68
2021/01/13 13:22:43;;;;;;;;;;;3.80;99.90;;;;;;5071774;28;19924;-68
2021/01/13 13:25:10;;;;;;;;;;;3.80;99.90;;;;;;5071803;28;19951;-68
2021/01/13 13:27:37;;;;;;;;;;;3.80;99.90;;;;;;5071661;28;19932;-67
2021/01/13 13:30:04;;;;;;;;;;;3.90;99.90;;;;;;5071477;28;19932;-68
2021/01/13 13:32:30;;;;;;;;;;;3.90;99.90;;;;;;5071546;28;20528;-68
2021/01/13 13:34:56;;;;;;;;;;;3.80;99.90;;;;;;5071509;28;19924;-68
2021/01/13 13:37:22;;;;;;;;;;;3.80;99.90;;;;;;5074407;28;19931;-67
2021/01/13 13:39:48;;;;;;;;;;;3.90;99.90;;;;;;5074479;28;19971;-67
2021/01/13 13:42:14;;;;;;;;;;;3.80;99.90;;;;;;5074466;28;19940;-68
2021/01/13 13:44:41;;;;;;;;;;;3.80;99.90;;;;;;5075170;28;19924;-67
2021/01/13 13:47:08;;;;;;;;;;;3.80;99.90;;;;;;5074618;28;20309;-68
2021/01/13 13:49:34;;;;;;;;;;;3.80;99.90;;;;;;5074492;28;19932;-68
2021/01/13 13:52:00;;;;;;;;;;;3.90;99.90;;;;;;5074184;28;20373;-68
2021/01/13 13:54:26;;;;;;;;;;;3.90;99.90;;;;;;5074834;28;20389;-68
2021/01/13 13:56:55;;;;;;;;;;;3.90;99.90;;;;;;5074395;28;20499;-67
2021/01/13 13:59:21;;;;;;;;;;;4.00;99.90;;;;;;5074613;28;19924;-67
2021/01/13 14:01:48;;;;;;;;;;;4.00;99.90;;;;;;5074168;28;19925;-67
2021/01/13 14:04:14;;;;;;;;;;;4.00;99.90;;;;;;5074721;28;19924;-67
2021/01/13 14:06:40;;;;;;;;;;;4.00;99.90;;;;;;5074842;28;20296;-68
2021/01/13 14:09:06;;;;;;;;;;;4.00;99.90;;;;;;5074642;28;19931;-68
2021/01/13 14:11:37;;;;;;;;;;;4.00;99.90;;;;;;5074303;28;20458;-68
2021/01/13 14:14:04;;;;;;;;;;;4.10;99.90;;;;;;5074732;28;19925;-69
2021/01/13 14:16:30;;;;;;;;;;;4.10;99.90;;;;;;5074472;28;20389;-68
2021/01/13 14:18:57;;;;;;;;;;;4.10;99.90;;;;;;5074506;28;19955;-68
2021/01/13 14:21:23;;;;;;;;;;;4.00;99.90;;;;;;5074118;28;19925;-69
2021/01/13 14:23:49;;;;;;;;;;;4.00;99.90;;;;;;5074315;28;19924;-68
2021/01/13 14:26:17;;;;;;;;;;;4.00;99.90;;;;;;5074723;28;19924;-67
2021/01/13 14:28:44;;;;;;;;;;;4.00;99.90;;;;;;5074544;28;19924;-67
2021/01/13 14:31:10;;;;;;;;;;;3.90;99.90;;;;;;5074028;28;20053;-67
2021/01/13 14:33:36;;;;;;;;;;;3.90;99.90;;;;;;5074084;28;19928;-67
2021/01/13 14:36:04;;;;;;;;;;;3.90;99.90;;;;;;5074326;28;19924;-68
2021/01/13 14:38:30;;;;;;;;;;;3.90;99.90;;;;;;5074161;28;19939;-67
2021/01/13 14:40:56;;;;;;;;;;;3.80;99.90;;;;;;5074019;28;19931;-68
2021/01/13 14:43:22;;;;;;;;;;;3.80;99.90;;;;;;5074152;28;19929;-67